createdAt,value
2023-04-13T00:01:13.589Z,4.41
2023-04-13T00:03:40.781Z,4.27
2023-04-13T00:06:11.122Z,4.58
2023-04-13T00:08:38.832Z,4.59
2023-04-13T00:11:07.509Z,4.48
2023-04-13T00:13:41.224Z,4.64
2023-04-13T00:16:09.832Z,4.69
2023-04-13T00:18:36.867Z,4.71
2023-04-13T00:21:04.100Z,4.75
2023-04-13T00:23:31.935Z,4.78
2023-04-13T00:26:01.372Z,4.80
2023-04-13T00:28:29.586Z,4.87
2023-04-13T00:30:58.990Z,4.65
2023-04-13T00:33:26.115Z,4.79
2023-04-13T00:35:53.122Z,4.74
2023-04-13T00:38:20.126Z,4.78
2023-04-13T00:40:47.145Z,4.82
2023-04-13T00:43:14.818Z,4.79
2023-04-13T00:45:43.639Z,4.79
2023-04-13T00:48:11.313Z,4.81
2023-04-13T00:50:39.623Z,4.84
2023-04-13T00:53:10.437Z,4.89
2023-04-13T00:55:39.289Z,4.96
2023-04-13T00:58:06.506Z,4.89
2023-04-13T01:00:33.521Z,4.81
2023-04-13T01:03:01.780Z,4.92
2023-04-13T01:05:35.307Z,4.71
2023-04-13T01:08:20.903Z,4.96
2023-04-13T01:10:54.148Z,5.04
2023-04-13T01:13:40.482Z,5.00
2023-04-13T01:16:11.918Z,4.98
2023-04-13T01:18:41.752Z,4.90
2023-04-13T01:21:14.670Z,4.92
2023-04-13T01:23:58.747Z,4.89
2023-04-13T01:26:51.371Z,4.68
2023-04-13T01:29:18.744Z,4.88
2023-04-13T01:31:48.602Z,4.89
2023-04-13T01:34:16.594Z,4.89
2023-04-13T01:36:45.707Z,4.92
2023-04-13T01:39:20.145Z,5.00
2023-04-13T01:41:48.402Z,4.96
2023-04-13T01:44:15.587Z,5.03
2023-04-13T01:46:47.566Z,5.10
2023-04-13T01:49:35.323Z,5.17
2023-04-13T01:52:27.835Z,5.22
2023-04-13T01:54:56.339Z,4.86
2023-04-13T01:57:24.738Z,5.21
2023-04-13T01:59:52.387Z,4.98
2023-04-13T02:02:21.119Z,5.25
2023-04-13T02:04:48.508Z,5.21
2023-04-13T02:07:16.857Z,5.18
2023-04-13T02:09:47.862Z,5.11
2023-04-13T02:12:16.809Z,5.17
2023-04-13T02:14:43.830Z,5.21
2023-04-13T02:17:11.742Z,5.21
2023-04-13T02:19:40.722Z,5.29
2023-04-13T02:22:07.770Z,5.16
2023-04-13T02:24:34.804Z,5.48
2023-04-13T02:27:02.078Z,5.51
2023-04-13T02:29:29.650Z,5.57
2023-04-13T02:31:57.816Z,5.63
2023-04-13T02:34:26.045Z,5.70
2023-04-13T02:36:53.626Z,5.79
2023-04-13T02:39:20.871Z,5.83
2023-04-13T02:41:48.840Z,5.77
2023-04-13T02:44:22.021Z,5.45
2023-04-13T02:46:54.319Z,5.96
2023-04-13T02:49:21.485Z,5.98
2023-04-13T02:51:57.611Z,6.02
2023-04-13T02:54:38.007Z,6.07
2023-04-13T02:57:05.096Z,5.99
2023-04-13T02:59:35.027Z,6.07
2023-04-13T03:02:04.658Z,6.04
2023-04-13T03:04:33.332Z,5.98
2023-04-13T03:07:05.008Z,6.09
2023-04-13T03:09:32.945Z,6.16
2023-04-13T03:12:00.003Z,6.16
2023-04-13T03:14:29.816Z,6.17
2023-04-13T03:17:04.301Z,6.07
2023-04-13T03:19:39.367Z,6.19
2023-04-13T03:22:08.192Z,6.07
2023-04-13T03:24:39.826Z,5.95
2023-04-13T03:27:09.989Z,6.12
2023-04-13T03:29:45.295Z,6.09
2023-04-13T03:32:18.847Z,6.08
2023-04-13T03:34:49.663Z,6.11
2023-04-13T03:37:16.728Z,6.12
2023-04-13T03:39:44.339Z,6.16
2023-04-13T03:42:15.802Z,6.17
2023-04-13T03:44:50.129Z,6.16
2023-04-13T03:47:17.215Z,5.76
2023-04-13T03:49:44.237Z,6.19
2023-04-13T03:52:11.454Z,6.08
2023-04-13T03:54:42.449Z,6.22
2023-04-13T03:57:09.547Z,6.02
2023-04-13T03:59:36.768Z,6.07
2023-04-13T04:02:05.497Z,6.27
2023-04-13T04:04:35.782Z,6.29
2023-04-13T04:07:02.877Z,6.25
2023-04-13T04:09:31.727Z,6.24
2023-04-13T04:11:58.830Z,6.31
2023-04-13T04:14:37.112Z,6.29
2023-04-13T04:17:14.515Z,6.33
2023-04-13T04:19:41.763Z,6.40
2023-04-13T04:22:09.820Z,6.34
2023-04-13T04:24:42.246Z,6.28
2023-04-13T04:27:09.375Z,6.31
2023-04-13T04:29:36.481Z,6.34
2023-04-13T04:32:26.203Z,6.32
2023-04-13T04:34:54.999Z,6.30
2023-04-13T04:37:25.849Z,6.37
2023-04-13T04:40:10.583Z,6.37
2023-04-13T04:42:39.353Z,6.11
2023-04-13T04:45:16.929Z,6.39
2023-04-13T04:47:48.828Z,6.35
2023-04-13T04:50:20.277Z,6.34
2023-04-13T04:52:52.632Z,6.42
2023-04-13T04:55:23.443Z,6.18
2023-04-13T04:57:50.555Z,6.42
2023-04-13T05:00:20.231Z,6.19
2023-04-13T05:03:09.674Z,6.34
2023-04-13T05:05:40.317Z,6.14
2023-04-13T05:08:11.746Z,6.32
2023-04-13T05:10:46.089Z,6.28
2023-04-13T05:13:13.118Z,6.26
2023-04-13T05:15:43.298Z,6.07
2023-04-13T05:18:12.817Z,6.34
2023-04-13T05:20:41.508Z,6.33
2023-04-13T05:23:09.626Z,6.39
2023-04-13T05:25:43.007Z,6.29
2023-04-13T05:28:17.331Z,6.34
2023-04-13T05:30:45.322Z,6.37
2023-04-13T05:33:12.343Z,6.24
2023-04-13T05:35:40.584Z,6.20
2023-04-13T05:38:09.208Z,6.02
2023-04-13T05:40:36.279Z,6.28
2023-04-13T05:43:04.791Z,6.36
2023-04-13T05:45:36.067Z,6.22
2023-04-13T05:48:07.283Z,6.28
2023-04-13T05:50:34.706Z,6.26
2023-04-13T05:53:02.360Z,6.15
2023-04-13T05:55:45.096Z,6.19
2023-04-13T05:58:13.310Z,6.14
2023-04-13T06:00:41.345Z,6.11
2023-04-13T06:03:12.991Z,6.47
2023-04-13T06:05:40.325Z,6.40
2023-04-13T06:08:10.483Z,6.28
2023-04-13T06:10:38.954Z,6.12
2023-04-13T06:13:06.044Z,6.19
2023-04-13T06:15:36.319Z,6.05
2023-04-13T06:18:03.501Z,6.30
2023-04-13T06:20:33.316Z,6.41
2023-04-13T06:23:00.377Z,6.61
2023-04-13T06:25:27.995Z,6.66
2023-04-13T06:27:56.159Z,6.70
2023-04-13T06:30:23.259Z,6.61
2023-04-13T06:32:54.356Z,6.62
2023-04-13T06:35:23.614Z,6.43
2023-04-13T06:37:51.703Z,6.62
2023-04-13T06:40:25.629Z,6.50
2023-04-13T06:43:03.808Z,6.37
2023-04-13T06:45:40.252Z,6.71
2023-04-13T06:48:11.473Z,6.56
2023-04-13T06:50:39.423Z,6.92
2023-04-13T06:53:07.533Z,6.79
2023-04-13T06:55:35.022Z,7.02
2023-04-13T06:58:02.028Z,7.20
2023-04-13T07:00:30.610Z,7.47
2023-04-13T07:03:00.186Z,7.36
2023-04-13T07:05:28.004Z,6.93
2023-04-13T07:08:00.009Z,7.39
2023-04-13T07:10:27.221Z,7.40
2023-04-13T07:12:57.634Z,6.96
2023-04-13T07:15:27.782Z,7.21
2023-04-13T07:17:55.960Z,7.38
2023-04-13T07:20:23.059Z,7.36
2023-04-13T07:22:51.056Z,7.24
2023-04-13T07:25:18.229Z,7.30
2023-04-13T07:27:46.199Z,7.52
2023-04-13T07:30:13.770Z,7.57
2023-04-13T07:32:45.125Z,7.45
2023-04-13T07:35:12.620Z,7.54
2023-04-13T07:37:42.372Z,7.55
2023-04-13T07:40:11.887Z,7.95
2023-04-13T07:42:41.568Z,8.29
2023-04-13T07:45:13.952Z,8.16
2023-04-13T07:47:41.489Z,7.81
2023-04-13T07:50:09.749Z,8.01
2023-04-13T07:52:37.875Z,8.03
2023-04-13T07:55:06.126Z,7.78
2023-04-13T07:57:36.624Z,7.62
2023-04-13T08:00:06.179Z,7.49
2023-04-13T08:02:41.671Z,7.01
2023-04-13T08:05:12.499Z,6.76
2023-04-13T08:07:40.185Z,6.96
2023-04-13T08:10:08.488Z,7.05
2023-04-13T08:12:35.524Z,6.97
2023-04-13T08:15:02.928Z,7.05
2023-04-13T08:17:30.074Z,7.17
2023-04-13T08:19:57.411Z,7.11
2023-04-13T08:22:24.647Z,7.01
2023-04-13T08:24:51.637Z,7.29
2023-04-13T08:27:19.754Z,7.06
2023-04-13T08:29:47.364Z,7.31
2023-04-13T08:32:15.687Z,7.42
2023-04-13T08:34:42.842Z,7.46
2023-04-13T08:37:11.556Z,7.48
2023-04-13T08:39:38.660Z,7.55
2023-04-13T08:42:06.354Z,7.41
2023-04-13T08:44:40.144Z,7.49
2023-04-13T08:47:10.509Z,7.60
2023-04-13T08:49:39.282Z,7.37
2023-04-13T08:52:10.936Z,7.31
2023-04-13T08:54:40.406Z,7.72
2023-04-13T08:57:16.358Z,7.72
2023-04-13T08:59:44.499Z,7.85
2023-04-13T09:02:12.001Z,7.86
2023-04-13T09:04:53.972Z,8.16
2023-04-13T09:07:28.131Z,8.39
2023-04-13T09:10:00.674Z,8.82
2023-04-13T09:12:29.078Z,9.16
2023-04-13T09:14:56.469Z,9.26
2023-04-13T09:17:30.455Z,9.48
2023-04-13T09:20:10.974Z,9.52
2023-04-13T09:22:38.111Z,9.72
2023-04-13T09:25:06.004Z,9.75
2023-04-13T09:27:35.133Z,9.80
2023-04-13T09:30:02.587Z,9.40
2023-04-13T09:32:29.609Z,9.56
2023-04-13T09:35:08.351Z,9.90
2023-04-13T09:37:36.887Z,9.91
2023-04-13T09:40:22.179Z,10.10
2023-04-13T09:42:58.909Z,10.24
2023-04-13T09:45:34.493Z,10.42
2023-04-13T09:48:05.545Z,10.21
2023-04-13T09:50:34.834Z,9.92
2023-04-13T09:53:06.497Z,9.67
2023-04-13T09:55:35.452Z,9.86
2023-04-13T09:58:10.076Z,9.86
2023-04-13T10:00:38.742Z,9.92
2023-04-13T10:03:11.687Z,9.62
2023-04-13T10:05:55.048Z,9.92
2023-04-13T10:08:36.889Z,10.01
2023-04-13T10:11:10.587Z,9.78
2023-04-13T10:13:47.841Z,9.63
2023-04-13T10:16:53.843Z,10.31
2023-04-13T10:19:24.769Z,10.08
2023-04-13T10:21:53.027Z,10.24
2023-04-13T10:24:22.183Z,10.41
2023-04-13T10:27:00.249Z,10.72
2023-04-13T10:29:32.627Z,10.93
2023-04-13T10:32:03.657Z,11.45
2023-04-13T10:34:34.295Z,11.50
2023-04-13T10:37:06.182Z,11.52
2023-04-13T10:39:34.941Z,11.76
2023-04-13T10:42:07.969Z,11.46
2023-04-13T10:44:47.707Z,11.27
2023-04-13T10:47:17.344Z,11.32
2023-04-13T10:49:48.338Z,11.52
2023-04-13T10:52:16.240Z,10.96
2023-04-13T10:54:44.572Z,11.05
2023-04-13T10:57:12.755Z,10.94
2023-04-13T10:59:55.670Z,10.98
2023-04-13T11:02:26.119Z,10.71
2023-04-13T11:04:53.628Z,10.67
2023-04-13T11:07:23.443Z,10.31
2023-04-13T11:09:50.868Z,10.07
2023-04-13T11:12:18.691Z,10.78
2023-04-13T11:14:49.548Z,10.78
2023-04-13T11:17:18.853Z,10.60
2023-04-13T11:19:56.874Z,11.15
2023-04-13T11:22:27.658Z,11.12
2023-04-13T11:25:06.722Z,11.06
2023-04-13T11:27:33.730Z,10.94
2023-04-13T11:30:06.030Z,11.10
2023-04-13T11:32:34.092Z,11.57
2023-04-13T11:35:08.613Z,11.64
2023-04-13T11:37:40.722Z,11.99
2023-04-13T11:40:10.550Z,12.45
2023-04-13T11:42:48.332Z,12.48
2023-04-13T11:45:17.319Z,12.53
2023-04-13T11:47:46.143Z,13.12
2023-04-13T11:50:15.824Z,12.24
2023-04-13T11:52:44.737Z,11.29
2023-04-13T11:55:22.438Z,10.03
2023-04-13T11:57:52.869Z,9.60
2023-04-13T12:00:25.818Z,9.66
2023-04-13T12:05:31.279Z,8.94
2023-04-13T12:07:59.446Z,8.39
2023-04-13T12:10:40.572Z,7.86
2023-04-13T12:16:05.581Z,7.28
2023-04-13T12:18:44.256Z,6.92
2023-04-13T12:21:16.372Z,6.61
2023-04-13T12:23:54.343Z,6.73
2023-04-13T12:28:55.037Z,7.73
2023-04-13T12:31:21.920Z,7.97
2023-04-13T12:33:49.028Z,8.33
2023-04-13T12:36:16.411Z,8.73
2023-04-13T12:38:43.625Z,8.78
2023-04-13T12:41:10.814Z,9.38
2023-04-13T12:43:37.888Z,10.15
2023-04-13T12:46:04.970Z,10.43
2023-04-13T12:48:31.944Z,10.69
2023-04-13T12:50:59.071Z,11.02
2023-04-13T12:53:26.215Z,11.00
2023-04-13T12:55:53.329Z,11.00
2023-04-13T12:58:20.480Z,10.87
2023-04-13T13:00:47.640Z,11.19
2023-04-13T13:03:15.296Z,11.07
2023-04-13T13:05:42.769Z,10.22
2023-04-13T13:08:09.777Z,10.50
2023-04-13T13:10:37.595Z,10.89
2023-04-13T13:13:06.105Z,10.52
2023-04-13T13:15:33.527Z,10.31
2023-04-13T13:18:02.983Z,10.37
2023-04-13T13:20:30.223Z,10.57
2023-04-13T13:22:57.680Z,10.06
2023-04-13T13:25:24.950Z,9.96
2023-04-13T13:30:21.936Z,9.70
2023-04-13T13:32:49.045Z,10.15
2023-04-13T13:35:16.667Z,10.13
2023-04-13T13:37:43.823Z,10.27
2023-04-13T13:40:12.910Z,10.18
2023-04-13T13:42:51.280Z,10.29
2023-04-13T13:45:22.859Z,10.70
2023-04-13T13:47:54.174Z,10.70
2023-04-13T13:50:28.668Z,10.99
2023-04-13T13:53:03.661Z,10.67
2023-04-13T13:55:36.070Z,10.83
2023-04-13T13:58:03.381Z,10.91
2023-04-13T14:00:31.055Z,10.90
2023-04-13T14:02:58.206Z,11.26
2023-04-13T14:05:25.328Z,10.88
2023-04-13T14:07:52.328Z,10.81
2023-04-13T14:10:19.326Z,10.59
2023-04-13T14:12:49.660Z,10.35
2023-04-13T14:15:17.710Z,10.53
2023-04-13T14:17:52.952Z,10.46
2023-04-13T14:20:29.327Z,10.54
2023-04-13T14:22:57.313Z,10.66
2023-04-13T14:25:24.311Z,10.88
2023-04-13T14:27:51.303Z,11.24
2023-04-13T14:30:18.863Z,11.48
2023-04-13T14:32:49.382Z,11.92
2023-04-13T14:35:16.710Z,11.97
2023-04-13T14:37:43.771Z,12.10
2023-04-13T14:40:17.022Z,11.93
2023-04-13T14:42:44.536Z,12.00
2023-04-13T14:45:12.344Z,11.97
2023-04-13T14:47:40.062Z,11.53
2023-04-13T14:50:08.323Z,11.79
2023-04-13T14:52:35.725Z,11.85
2023-04-13T14:55:02.910Z,12.08
2023-04-13T14:57:30.107Z,12.02
2023-04-13T14:59:57.126Z,12.43
2023-04-13T15:02:24.317Z,12.57
2023-04-13T15:04:51.604Z,12.70
2023-04-13T15:07:18.806Z,13.00
2023-04-13T15:09:45.852Z,13.24
2023-04-13T15:12:13.895Z,13.40
2023-04-13T15:14:46.468Z,13.64
2023-04-13T15:19:40.723Z,13.58
2023-04-13T15:22:07.741Z,13.92
2023-04-13T15:24:34.756Z,13.26
2023-04-13T15:27:01.839Z,13.80
2023-04-13T15:29:28.850Z,13.44
2023-04-13T15:31:55.885Z,13.75
2023-04-13T15:34:22.911Z,13.70
2023-04-13T15:36:49.898Z,13.71
2023-04-13T15:39:16.950Z,14.41
2023-04-13T15:41:44.013Z,14.41
2023-04-13T15:44:11.085Z,13.45
2023-04-13T15:46:38.430Z,13.42
2023-04-13T15:49:05.666Z,12.87
2023-04-13T15:51:32.791Z,12.58
2023-04-13T15:53:59.818Z,12.45
2023-04-13T15:56:28.394Z,12.61
2023-04-13T15:58:55.429Z,12.65
2023-04-13T16:01:22.681Z,12.61
2023-04-13T16:03:49.916Z,12.24
2023-04-13T16:06:17.031Z,12.25
2023-04-13T16:08:44.017Z,12.09
2023-04-13T16:11:11.663Z,12.09
2023-04-13T16:13:48.148Z,12.18
2023-04-13T16:16:16.737Z,12.03
2023-04-13T16:18:43.978Z,12.18
2023-04-13T16:21:12.293Z,12.54
2023-04-13T16:23:39.335Z,12.66
2023-04-13T16:26:06.404Z,13.36
2023-04-13T16:28:34.455Z,13.82
2023-04-13T16:31:01.905Z,15.63
2023-04-13T16:33:29.926Z,17.24
2023-04-13T16:35:58.224Z,18.16
2023-04-13T16:38:25.325Z,15.83
2023-04-13T16:40:52.352Z,15.15
2023-04-13T16:43:19.439Z,15.12
2023-04-13T16:45:47.100Z,15.65
2023-04-13T16:48:14.070Z,15.87
2023-04-13T16:50:41.268Z,15.55
2023-04-13T16:53:08.245Z,14.51
2023-04-13T16:55:35.232Z,14.00
2023-04-13T16:58:02.589Z,13.98
2023-04-13T17:00:29.633Z,13.31
2023-04-13T17:02:58.969Z,13.30
2023-04-13T17:05:28.378Z,13.15
2023-04-13T17:07:55.702Z,13.64
2023-04-13T17:10:23.040Z,13.17
2023-04-13T17:12:50.088Z,13.05
2023-04-13T17:15:19.146Z,12.92
2023-04-13T17:17:46.276Z,12.38
2023-04-13T17:20:15.119Z,12.27
2023-04-13T17:22:44.103Z,11.98
2023-04-13T17:25:11.249Z,12.14
2023-04-13T17:27:38.298Z,12.09
2023-04-13T17:30:06.398Z,11.90
2023-04-13T17:32:33.587Z,11.62
2023-04-13T17:35:00.989Z,11.77
2023-04-13T17:37:29.384Z,11.51
2023-04-13T17:39:56.508Z,11.27
2023-04-13T17:42:23.579Z,11.30
2023-04-13T17:44:50.679Z,11.18
2023-04-13T17:47:17.716Z,10.99
2023-04-13T17:49:44.826Z,11.09
2023-04-13T17:52:11.948Z,11.09
2023-04-13T17:54:40.419Z,10.64
2023-04-13T17:57:07.660Z,10.67
2023-04-13T17:59:34.707Z,10.78
2023-04-13T18:02:01.860Z,10.63
2023-04-13T18:04:31.350Z,10.42
2023-04-13T18:06:58.432Z,10.26
2023-04-13T18:09:49.570Z,10.25
2023-04-13T18:16:33.803Z,8.23
2023-04-13T18:19:42.068Z,8.95
2023-04-13T18:23:17.974Z,7.92
2023-04-13T18:26:37.993Z,8.24
2023-04-13T18:30:13.853Z,8.22
2023-04-13T18:36:10.872Z,6.98
2023-04-13T18:39:48.620Z,8.68
2023-04-13T18:52:49.855Z,7.44
2023-04-13T18:59:50.186Z,7.30
2023-04-13T19:03:17.330Z,8.10
2023-04-13T19:06:53.735Z,7.97
2023-04-13T19:14:42.070Z,5.90
2023-04-13T19:21:46.134Z,6.14
2023-04-13T19:26:04.659Z,5.58
2023-04-13T19:41:35.622Z,5.46
2023-04-13T19:53:14.412Z,5.27
2023-04-13T19:57:18.677Z,6.69
2023-04-13T20:01:21.673Z,6.65
2023-04-13T20:07:43.999Z,5.63
2023-04-13T20:10:12.190Z,5.78
2023-04-13T20:12:51.081Z,4.87
2023-04-13T20:15:22.762Z,6.31
2023-04-13T20:17:51.216Z,6.15
2023-04-13T20:20:20.590Z,6.31
2023-04-13T20:22:48.810Z,6.13
2023-04-13T20:25:15.941Z,6.26
2023-04-13T20:27:42.982Z,6.07
2023-04-13T20:30:10.866Z,5.94
2023-04-13T20:32:38.887Z,5.77
2023-04-13T20:35:06.380Z,5.93
2023-04-13T20:37:33.488Z,5.95
2023-04-13T20:40:00.626Z,5.74
2023-04-13T20:42:30.661Z,5.82
2023-04-13T20:44:58.372Z,5.70
2023-04-13T20:47:31.445Z,5.62
2023-04-13T20:49:59.858Z,5.74
2023-04-13T20:52:29.813Z,5.63
2023-04-13T20:54:56.948Z,5.12
2023-04-13T20:57:24.145Z,5.25
2023-04-13T20:59:52.082Z,5.46
2023-04-13T21:02:19.253Z,5.38
2023-04-13T21:04:46.699Z,5.41
2023-04-13T21:07:15.271Z,5.25
2023-04-13T21:09:42.578Z,5.20
2023-04-13T21:12:09.643Z,5.07
2023-04-13T21:14:36.725Z,4.67
2023-04-13T21:17:03.713Z,4.91
2023-04-13T21:19:32.439Z,4.91
2023-04-13T21:21:59.531Z,4.88
2023-04-13T21:24:26.573Z,4.92
2023-04-13T21:26:53.562Z,4.90
2023-04-13T21:29:20.734Z,4.97
2023-04-13T21:31:48.180Z,4.99
2023-04-13T21:34:16.604Z,5.17
2023-04-13T21:39:15.866Z,5.07
2023-04-13T21:41:42.861Z,4.95
2023-04-13T21:44:22.651Z,4.88
2023-04-13T21:46:55.888Z,4.98
2023-04-13T21:49:22.997Z,4.76
2023-04-13T21:51:50.097Z,4.78
2023-04-13T21:54:17.138Z,4.60
2023-04-13T21:56:44.174Z,4.77
2023-04-13T21:59:11.362Z,4.72
2023-04-13T22:01:38.617Z,4.62
2023-04-13T22:04:06.214Z,4.03
2023-04-13T22:06:33.314Z,4.37
2023-04-13T22:09:00.803Z,4.24
2023-04-13T22:11:28.197Z,4.31
2023-04-13T22:13:55.233Z,4.43
2023-04-13T22:16:22.582Z,4.31
2023-04-13T22:18:49.814Z,4.01
2023-04-13T22:21:16.824Z,3.93
2023-04-13T22:23:43.862Z,4.04
2023-04-13T22:26:10.862Z,4.09
2023-04-13T22:28:37.886Z,4.10
2023-04-13T22:31:08.972Z,4.13
2023-04-13T22:33:36.404Z,4.24
2023-04-13T22:36:05.041Z,4.20
2023-04-13T22:38:32.151Z,4.10
2023-04-13T22:40:59.228Z,4.07
2023-04-13T22:43:26.241Z,4.00
2023-04-13T22:46:00.104Z,4.03
2023-04-13T22:48:28.482Z,3.89
2023-04-13T22:50:56.883Z,4.04
2023-04-13T22:53:24.221Z,3.88
2023-04-13T22:55:51.205Z,3.90
2023-04-13T22:58:18.184Z,4.04
2023-04-13T23:00:45.258Z,3.97
2023-04-13T23:03:13.242Z,3.90
2023-04-13T23:05:40.593Z,3.55
2023-04-13T23:08:07.602Z,3.63
2023-04-13T23:10:34.610Z,3.63
2023-04-13T23:13:01.625Z,3.77
2023-04-13T23:15:28.650Z,3.70
2023-04-13T23:17:56.861Z,3.73
2023-04-13T23:20:24.010Z,3.48
2023-04-13T23:22:51.156Z,3.63
2023-04-13T23:25:18.130Z,3.67
2023-04-13T23:27:45.253Z,3.59
2023-04-13T23:30:12.749Z,3.73
2023-04-13T23:32:39.908Z,3.81
2023-04-13T23:35:07.676Z,3.67
2023-04-13T23:37:34.681Z,3.51
2023-04-13T23:40:01.694Z,3.82
2023-04-13T23:42:28.686Z,3.66
2023-04-13T23:44:55.678Z,3.58
2023-04-13T23:47:22.762Z,3.74
2023-04-13T23:49:51.421Z,3.70
2023-04-13T23:52:18.796Z,3.68
2023-04-13T23:54:45.830Z,3.80
2023-04-13T23:57:12.889Z,3.88
2023-04-13T23:59:39.945Z,3.60
